Time;durP1;ratioP1;P1;durP2;ratioP2;P2;SDS_P1;SDS_P2;PMS_P1;PMS_P2;Temp;Humidity;BMP_temperature;BMP_pressure;BME280_temperature;BME280_humidity;BME280_pressure;Samples;Min_cycle;Max_cycle;Signal;HPM_P1;HPM_P2
2024/04/03 00:02:11;;;;;;;0.30;0.30;;;10.50;99.90;;;;;;4454414;32;20420;-62
2024/04/03 00:04:37;;;;;;;0.20;0.20;;;10.50;99.90;;;;;;4454735;32;20093;-63
2024/04/03 00:07:03;;;;;;;0.30;0.30;;;10.60;99.90;;;;;;4454162;32;20763;-63
2024/04/03 00:09:29;;;;;;;0.40;0.40;;;10.60;99.90;;;;;;4452540;32;20060;-65
2024/04/03 00:11:54;;;;;;;1.50;0.60;;;10.60;99.90;;;;;;4446366;32;20064;-62
2024/04/03 00:14:20;;;;;;;0.40;0.40;;;10.60;99.90;;;;;;4453854;32;21313;-64
2024/04/03 00:16:45;;;;;;;0.30;0.30;;;10.60;99.90;;;;;;4455256;32;20085;-66
2024/04/03 00:19:11;;;;;;;0.55;0.55;;;10.60;99.90;;;;;;4455690;32;20076;-63
2024/04/03 00:21:36;;;;;;;0.40;0.40;;;10.70;99.90;;;;;;4456091;32;20129;-65
2024/04/03 00:24:03;;;;;;;0.32;0.32;;;10.70;99.90;;;;;;4447169;32;20073;-65
2024/04/03 00:26:31;;;;;;;0.30;0.30;;;10.70;99.90;;;;;;4444610;32;20080;-64
2024/04/03 00:28:57;;;;;;;0.90;0.77;;;10.70;99.90;;;;;;4455822;32;20501;-62
2024/04/03 00:31:22;;;;;;;0.45;0.43;;;10.70;99.90;;;;;;4449595;32;20077;-64
2024/04/03 00:33:48;;;;;;;3.78;1.50;;;10.70;99.90;;;;;;4456173;32;20426;-63
2024/04/03 00:36:13;;;;;;;3.60;1.05;;;10.60;99.90;;;;;;4456335;32;20118;-64
2024/04/03 00:38:39;;;;;;;0.62;0.62;;;10.60;99.90;;;;;;4456879;32;20076;-64
2024/04/03 00:41:04;;;;;;;0.60;0.60;;;10.70;99.90;;;;;;4455328;32;20494;-63
2024/04/03 00:43:31;;;;;;;1.12;0.32;;;10.60;99.90;;;;;;4455659;32;20077;-64
2024/04/03 00:45:59;;;;;;;0.32;0.32;;;10.70;99.90;;;;;;4455423;32;20080;-63
2024/04/03 00:48:25;;;;;;;0.20;0.20;;;10.70;99.90;;;;;;4456019;32;20122;-66
2024/04/03 00:50:53;;;;;;;0.30;0.30;;;10.60;99.90;;;;;;4452453;32;20528;-66
2024/04/03 00:53:18;;;;;;;0.30;0.30;;;10.70;99.90;;;;;;4453644;32;20167;-66
2024/04/03 00:55:44;;;;;;;0.40;0.40;;;10.70;99.90;;;;;;4447390;32;20076;-66
2024/04/03 00:58:10;;;;;;;0.30;0.30;;;10.80;99.90;;;;;;4455840;32;20581;-67
2024/04/03 01:00:35;;;;;;;0.40;0.40;;;10.80;99.90;;;;;;4454016;32;20532;-65
2024/04/03 01:03:03;;;;;;;0.40;0.40;;;10.80;99.90;;;;;;4446502;32;20073;-67
2024/04/03 01:05:28;;;;;;;0.47;0.47;;;10.80;99.90;;;;;;4437625;32;20095;-66
2024/04/03 01:07:54;;;;;;;0.50;0.50;;;10.90;99.90;;;;;;4456528;32;20078;-66
2024/04/03 01:10:19;;;;;;;0.55;0.55;;;10.80;99.90;;;;;;4455683;32;20072;-66
2024/04/03 01:12:46;;;;;;;0.40;0.40;;;10.80;99.90;;;;;;4454078;32;20533;-66
2024/04/03 01:15:11;;;;;;;0.40;0.40;;;10.80;99.90;;;;;;4456198;32;20138;-67
2024/04/03 01:17:37;;;;;;;0.30;0.30;;;10.80;99.90;;;;;;4456730;32;20161;-66
2024/04/03 01:20:02;;;;;;;1.25;0.57;;;10.80;99.90;;;;;;4455476;32;20563;-66
2024/04/03 01:22:28;;;;;;;0.40;0.40;;;10.90;99.90;;;;;;4456846;32;20277;-66
2024/04/03 01:24:53;;;;;;;0.40;0.40;;;10.80;99.90;;;;;;4457101;32;20076;-67
2024/04/03 01:27:21;;;;;;;0.30;0.30;;;10.80;99.90;;;;;;4456488;32;20060;-63
2024/04/03 01:29:47;;;;;;;0.40;0.40;;;10.70;99.90;;;;;;4458055;32;20068;-63
2024/04/03 01:32:13;;;;;;;0.50;0.50;;;10.80;99.90;;;;;;4459304;32;20081;-64
2024/04/03 01:34:38;;;;;;;0.40;0.40;;;10.70;99.90;;;;;;4459401;32;20096;-63
2024/04/03 01:37:05;;;;;;;0.50;0.50;;;10.70;99.90;;;;;;4459431;32;20089;-63
2024/04/03 01:39:32;;;;;;;0.40;0.40;;;10.70;99.90;;;;;;4457590;32;20089;-65
2024/04/03 01:41:57;;;;;;;0.30;0.30;;;10.70;99.90;;;;;;4457615;32;20077;-63
2024/04/03 01:44:23;;;;;;;3.92;0.50;;;10.70;99.90;;;;;;4456994;32;20075;-64
2024/04/03 01:46:48;;;;;;;2.72;1.37;;;10.70;99.90;;;;;;4457887;32;20064;-63
2024/04/03 01:49:15;;;;;;;0.50;0.50;;;10.70;99.90;;;;;;4458605;32;20069;-64
2024/04/03 01:51:40;;;;;;;0.50;0.35;;;10.70;99.90;;;;;;4457423;32;20130;-64
2024/04/03 01:54:06;;;;;;;1.37;0.60;;;10.70;99.90;;;;;;4456931;32;20096;-64
2024/04/03 01:56:31;;;;;;;4.37;1.17;;;10.70;99.90;;;;;;4458093;32;20076;-64
2024/04/03 01:58:57;;;;;;;6.03;1.00;;;10.70;99.90;;;;;;4457519;32;20493;-63
2024/04/03 02:01:22;;;;;;;0.40;0.40;;;10.70;99.90;;;;;;4453318;32;20056;-64
2024/04/03 02:03:48;;;;;;;0.37;0.37;;;10.70;99.90;;;;;;4458279;32;20076;-64
2024/04/03 02:06:13;;;;;;;0.25;0.25;;;10.70;99.90;;;;;;4457398;32;20080;-63
2024/04/03 02:08:39;;;;;;;0.40;0.40;;;10.60;99.90;;;;;;4457090;32;20073;-63
2024/04/03 02:11:04;;;;;;;0.65;0.40;;;10.60;99.90;;;;;;4458206;32;20093;-64
2024/04/03 02:13:29;;;;;;;0.40;0.40;;;10.60;99.90;;;;;;4456603;32;20425;-63
2024/04/03 02:15:55;;;;;;;0.50;0.50;;;10.60;99.90;;;;;;4451386;32;20089;-63
2024/04/03 02:18:22;;;;;;;0.32;0.32;;;10.60;99.90;;;;;;4456979;32;20114;-64
2024/04/03 02:20:47;;;;;;;0.93;0.70;;;10.60;99.90;;;;;;4456996;32;20084;-63
2024/04/03 02:23:13;;;;;;;0.32;0.32;;;10.60;99.90;;;;;;4457483;32;20135;-63
2024/04/03 02:25:40;;;;;;;0.30;0.30;;;10.60;99.90;;;;;;4458266;32;20061;-63
2024/04/03 02:28:07;;;;;;;0.40;0.40;;;10.60;99.90;;;;;;4455830;32;20084;-63
2024/04/03 02:30:34;;;;;;;0.50;0.50;;;10.60;99.90;;;;;;4457252;32;20080;-63
2024/04/03 02:32:59;;;;;;;0.30;0.30;;;10.60;99.90;;;;;;4456623;32;20068;-63
2024/04/03 02:35:27;;;;;;;0.30;0.30;;;10.60;99.90;;;;;;4457273;32;20536;-62
2024/04/03 02:37:52;;;;;;;0.40;0.40;;;10.60;99.90;;;;;;4456898;32;20123;-67
2024/04/03 02:40:17;;;;;;;1.73;0.82;;;10.70;99.90;;;;;;4454767;32;20103;-64
2024/04/03 02:42:43;;;;;;;7.47;1.87;;;10.70;99.90;;;;;;4456412;32;20096;-67
2024/04/03 02:45:08;;;;;;;1.65;1.25;;;10.70;99.90;;;;;;4456223;32;20064;-64
2024/04/03 02:47:36;;;;;;;0.35;0.35;;;10.60;99.90;;;;;;4453422;32;20092;-65
2024/04/03 02:50:01;;;;;;;0.30;0.30;;;10.70;99.90;;;;;;4455454;32;20072;-66
2024/04/03 02:52:27;;;;;;;0.40;0.40;;;10.60;99.90;;;;;;4454118;32;20060;-65
2024/04/03 02:54:52;;;;;;;0.30;0.30;;;10.70;99.90;;;;;;4454678;32;20100;-65
2024/04/03 02:57:17;;;;;;;0.80;0.65;;;10.70;99.90;;;;;;4455295;32;20484;-65
2024/04/03 02:59:43;;;;;;;0.60;0.60;;;10.60;99.90;;;;;;4453791;32;20100;-65
2024/04/03 03:02:08;;;;;;;0.60;0.60;;;10.70;99.90;;;;;;4454519;32;20540;-66
2024/04/03 03:04:42;;;;;;;0.40;0.40;;;10.60;99.90;;;;;;4454300;32;20085;-66
2024/04/03 03:07:08;;;;;;;0.80;0.80;;;10.60;99.90;;;;;;4454990;32;20061;-67
2024/04/03 03:09:35;;;;;;;4.18;1.10;;;10.60;99.90;;;;;;4453572;32;20072;-67
2024/04/03 03:12:00;;;;;;;0.40;0.40;;;10.60;99.90;;;;;;4445869;32;20505;-68
2024/04/03 03:14:26;;;;;;;2.50;0.90;;;10.60;99.90;;;;;;4455420;32;20122;-66
2024/04/03 03:16:52;;;;;;;0.60;0.60;;;10.60;99.90;;;;;;4456716;32;20440;-68
2024/04/03 03:19:17;;;;;;;11.07;1.20;;;10.60;99.90;;;;;;4455222;32;20088;-68
2024/04/03 03:21:43;;;;;;;1.23;0.60;;;10.70;99.90;;;;;;4456292;32;20109;-66
2024/04/03 03:24:08;;;;;;;0.30;0.30;;;10.60;99.90;;;;;;4456819;32;20089;-66
2024/04/03 03:26:34;;;;;;;0.60;0.55;;;10.60;99.90;;;;;;4456100;32;20132;-65
2024/04/03 03:28:59;;;;;;;0.50;0.50;;;10.60;99.90;;;;;;4454629;32;20486;-64
2024/04/03 03:31:25;;;;;;;0.30;0.30;;;10.60;99.90;;;;;;4455509;32;20128;-67
2024/04/03 03:33:50;;;;;;;0.30;0.30;;;10.60;99.90;;;;;;4455510;32;20060;-65
2024/04/03 03:36:16;;;;;;;2.40;1.35;;;10.60;99.90;;;;;;4454890;32;20241;-67
2024/04/03 03:38:41;;;;;;;1.05;0.95;;;10.50;99.90;;;;;;4455674;32;20073;-67
2024/04/03 03:41:07;;;;;;;0.82;0.70;;;10.50;99.90;;;;;;4455229;32;20168;-68
2024/04/03 03:43:32;;;;;;;0.98;0.80;;;10.50;99.90;;;;;;4455074;32;20504;-67
2024/04/03 03:45:58;;;;;;;0.30;0.30;;;10.50;99.90;;;;;;4454473;32;20068;-67
2024/04/03 03:52:36;;;;;;;0.40;0.40;;;10.50;99.90;;;;;;4455728;32;20077;-65
2024/04/03 03:52:43;;;;;;;0.47;0.47;;;10.50;99.90;;;;;;4449850;32;20524;-64
2024/04/03 03:53:57;;;;;;;0.40;0.40;;;10.50;99.90;;;;;;4449941;32;20449;-64
2024/04/03 03:56:23;;;;;;;3.22;1.05;;;10.50;99.90;;;;;;4457686;32;20112;-64
2024/04/03 03:58:48;;;;;;;0.82;0.82;;;10.50;99.90;;;;;;4449698;32;20081;-64
2024/04/03 04:01:15;;;;;;;0.40;0.40;;;10.50;99.90;;;;;;4454177;32;20069;-63
2024/04/03 04:03:40;;;;;;;0.50;0.50;;;10.50;99.90;;;;;;4450116;32;20122;-64
2024/04/03 04:06:06;;;;;;;0.50;0.50;;;10.50;99.90;;;;;;4455682;32;20073;-64
2024/04/03 04:08:31;;;;;;;0.28;0.28;;;10.50;99.90;;;;;;4454761;32;20079;-63
2024/04/03 04:10:58;;;;;;;0.65;0.65;;;10.50;99.90;;;;;;4455453;32;20487;-64
2024/04/03 04:13:23;;;;;;;0.43;0.43;;;10.50;99.90;;;;;;4456669;32;20140;-64
2024/04/03 04:15:49;;;;;;;2.85;0.77;;;10.50;99.90;;;;;;4455005;32;20061;-64
2024/04/03 04:18:15;;;;;;;0.55;0.55;;;10.50;99.90;;;;;;4447361;32;20073;-62
2024/04/03 04:20:42;;;;;;;1.42;0.60;;;10.50;99.90;;;;;;4453897;32;20576;-61
2024/04/03 04:23:07;;;;;;;0.40;0.40;;;10.40;99.90;;;;;;4455658;32;20096;-62
2024/04/03 04:25:33;;;;;;;0.32;0.32;;;10.30;99.90;;;;;;4456062;32;20126;-61
2024/04/03 04:27:58;;;;;;;0.30;0.30;;;10.30;99.90;;;;;;4456054;32;20687;-63
2024/04/03 04:30:24;;;;;;;0.40;0.40;;;10.30;99.90;;;;;;4447214;32;20076;-64
2024/04/03 04:32:49;;;;;;;1.55;0.88;;;10.20;99.90;;;;;;4454187;32;20082;-63
2024/04/03 04:35:16;;;;;;;3.30;0.77;;;10.10;99.90;;;;;;4454765;32;20085;-63
2024/04/03 04:37:42;;;;;;;1.12;0.70;;;10.10;99.90;;;;;;4456621;32;20518;-62
2024/04/03 04:40:10;;;;;;;0.50;0.50;;;9.90;99.90;;;;;;4453821;32;20057;-62
2024/04/03 04:42:35;;;;;;;0.30;0.30;;;10.00;99.90;;;;;;4455442;32;20079;-63
2024/04/03 04:45:01;;;;;;;0.95;0.50;;;9.90;99.90;;;;;;4456455;32;20085;-63
2024/04/03 04:47:27;;;;;;;0.40;0.40;;;9.90;99.90;;;;;;4458026;32;20496;-62
2024/04/03 04:49:53;;;;;;;0.28;0.28;;;9.90;99.90;;;;;;4458233;32;20115;-62
2024/04/03 04:52:18;;;;;;;0.35;0.35;;;9.80;99.90;;;;;;4457926;32;20177;-62
2024/04/03 04:54:44;;;;;;;0.35;0.35;;;9.80;99.90;;;;;;4458239;32;20081;-65
2024/04/03 04:57:10;;;;;;;0.30;0.30;;;9.70;99.90;;;;;;4458601;32;20085;-64
2024/04/03 04:59:37;;;;;;;0.93;0.25;;;9.70;99.90;;;;;;4458951;32;20092;-64
2024/04/03 05:04:29;;;;;;;0.30;0.30;;;9.70;99.90;;;;;;4459364;32;20120;-64
2024/04/03 05:06:57;;;;;;;9.70;1.55;;;9.60;99.90;;;;;;4458967;32;20084;-64
2024/04/03 05:09:23;;;;;;;0.40;0.40;;;9.60;99.90;;;;;;4458853;32;20068;-64
2024/04/03 05:11:49;;;;;;;0.30;0.30;;;9.60;99.90;;;;;;4457867;32;20073;-63
2024/04/03 05:14:14;;;;;;;0.40;0.40;;;9.60;99.90;;;;;;4457715;32;20130;-64
2024/04/03 05:16:39;;;;;;;0.40;0.40;;;9.60;99.90;;;;;;4457546;32;20115;-64
2024/04/03 05:19:11;;;;;;;5.62;1.90;;;9.60;99.90;;;;;;4457779;32;20088;-64
2024/04/03 05:21:37;;;;;;;5.78;0.70;;;9.60;99.90;;;;;;4458673;32;20124;-64
2024/04/03 05:24:02;;;;;;;1.08;0.70;;;9.60;99.90;;;;;;4459152;32;20521;-64
2024/04/03 05:26:28;;;;;;;0.45;0.45;;;9.60;99.90;;;;;;4458641;32;20077;-64
2024/04/03 05:28:53;;;;;;;0.40;0.40;;;9.60;99.90;;;;;;4455176;32;20129;-64
2024/04/03 05:31:21;;;;;;;0.57;0.57;;;9.60;99.90;;;;;;4454866;32;20378;-64
2024/04/03 05:33:47;;;;;;;0.80;0.52;;;9.60;99.90;;;;;;4457426;32;20504;-65
2024/04/03 05:36:12;;;;;;;1.23;1.12;;;9.60;99.90;;;;;;4456800;32;20092;-65
2024/04/03 05:38:38;;;;;;;0.22;0.22;;;9.60;99.90;;;;;;4456510;32;20080;-65
2024/04/03 05:41:04;;;;;;;1.35;0.62;;;9.60;99.90;;;;;;4450945;32;20212;-65
2024/04/03 05:43:31;;;;;;;0.30;0.30;;;9.60;99.90;;;;;;4456395;32;20085;-65
2024/04/03 05:45:57;;;;;;;0.30;0.30;;;9.40;99.90;;;;;;4456897;32;20589;-65
2024/04/03 05:48:23;;;;;;;0.52;0.52;;;9.40;99.90;;;;;;4455584;32;20072;-65
2024/04/03 05:51:05;;;;;;;0.30;0.30;;;9.40;99.90;;;;;;4446007;32;20084;-64
2024/04/03 05:53:32;;;;;;;0.30;0.30;;;9.40;99.90;;;;;;4440370;32;20136;-64
2024/04/03 05:56:00;;;;;;;0.30;0.30;;;9.40;99.90;;;;;;4455325;32;20111;-64
2024/04/03 05:58:26;;;;;;;0.30;0.30;;;9.50;99.90;;;;;;4441681;32;20077;-64
2024/04/03 06:00:53;;;;;;;6.05;2.08;;;9.40;99.90;;;;;;4446653;32;20080;-64
2024/04/03 06:03:20;;;;;;;0.30;0.30;;;9.50;99.90;;;;;;4455159;32;20549;-65
2024/04/03 06:05:50;;;;;;;0.50;0.50;;;9.50;99.90;;;;;;4455828;32;20545;-65
2024/04/03 06:08:16;;;;;;;0.20;0.20;;;9.50;99.90;;;;;;4449896;32;20072;-67
2024/04/03 06:10:41;;;;;;;0.40;0.40;;;9.50;99.90;;;;;;4455640;32;20203;-67
2024/04/03 06:13:07;;;;;;;0.40;0.40;;;9.50;99.90;;;;;;4456630;32;20073;-67
2024/04/03 06:15:33;;;;;;;0.40;0.40;;;9.50;99.90;;;;;;4456762;32;20084;-67
2024/04/03 06:17:59;;;;;;;0.30;0.30;;;9.60;99.90;;;;;;4457764;32;20163;-68
2024/04/03 06:20:24;;;;;;;0.43;0.43;;;9.60;99.90;;;;;;4456211;32;20146;-67
2024/04/03 06:22:50;;;;;;;0.55;0.55;;;9.60;99.90;;;;;;4456835;32;20580;-67
2024/04/03 06:25:16;;;;;;;0.40;0.40;;;9.70;99.90;;;;;;4457082;32;20130;-67
2024/04/03 06:27:43;;;;;;;0.40;0.40;;;9.70;99.90;;;;;;4455303;32;20521;-66
2024/04/03 06:30:09;;;;;;;0.30;0.30;;;9.70;99.90;;;;;;4456718;32;20071;-68
2024/04/03 06:32:34;;;;;;;2.17;0.50;;;9.70;99.90;;;;;;4454826;32;20092;-67
2024/04/03 06:35:00;;;;;;;0.40;0.40;;;9.80;99.90;;;;;;4455484;32;20119;-67
2024/04/03 06:37:25;;;;;;;0.35;0.35;;;9.70;99.90;;;;;;4455049;32;20076;-67
2024/04/03 06:39:51;;;;;;;0.50;0.50;;;9.70;99.90;;;;;;4455323;32;20573;-68
2024/04/03 06:42:16;;;;;;;0.60;0.60;;;9.80;99.90;;;;;;4455733;32;20072;-68
2024/04/03 06:44:43;;;;;;;0.30;0.30;;;9.70;99.90;;;;;;4456908;32;20081;-68
2024/04/03 06:47:08;;;;;;;0.40;0.40;;;9.70;99.90;;;;;;4456145;32;20064;-67
2024/04/03 06:49:34;;;;;;;0.80;0.50;;;9.80;99.90;;;;;;4454600;32;20100;-68
2024/04/03 06:51:59;;;;;;;0.50;0.50;;;9.70;99.90;;;;;;4454425;32;20060;-67
2024/04/03 06:54:25;;;;;;;0.52;0.52;;;9.80;99.90;;;;;;4454954;32;20088;-67
2024/04/03 06:56:50;;;;;;;0.40;0.40;;;9.80;99.90;;;;;;4455627;32;20065;-68
2024/04/03 06:59:16;;;;;;;0.62;0.57;;;9.80;99.90;;;;;;4455453;32;20068;-68
2024/04/03 07:04:07;;;;;;;0.30;0.30;;;9.90;99.90;;;;;;4453633;32;20151;-66
2024/04/03 07:06:33;;;;;;;0.75;0.75;;;9.90;99.90;;;;;;4453890;32;20056;-67
2024/04/03 07:08:59;;;;;;;0.52;0.52;;;9.90;99.90;;;;;;4456089;32;20076;-68
2024/04/03 07:11:24;;;;;;;0.30;0.30;;;10.00;99.90;;;;;;4455745;32;20129;-68
2024/04/03 07:13:50;;;;;;;0.40;0.40;;;10.00;99.90;;;;;;4455589;32;20137;-68
2024/04/03 07:16:15;;;;;;;6.72;0.88;;;10.10;99.90;;;;;;4455527;32;20536;-67
2024/04/03 07:18:41;;;;;;;0.30;0.30;;;10.00;99.90;;;;;;4456238;32;20123;-66
2024/04/03 07:21:08;;;;;;;0.40;0.40;;;10.00;99.90;;;;;;4454720;32;20060;-66
2024/04/03 07:23:34;;;;;;;0.30;0.30;;;10.10;99.90;;;;;;4448734;32;20367;-65
2024/04/03 07:25:59;;;;;;;3.40;0.50;;;10.10;99.90;;;;;;4447767;32;20479;-65
2024/04/03 07:28:27;;;;;;;0.37;0.37;;;10.20;99.90;;;;;;4456316;32;20124;-65
2024/04/03 07:30:52;;;;;;;0.35;0.35;;;10.20;99.90;;;;;;4446948;32;20596;-65
2024/04/03 07:33:18;;;;;;;0.45;0.45;;;10.20;99.90;;;;;;4446073;32;20069;-65
2024/04/03 07:35:44;;;;;;;0.40;0.40;;;10.20;99.90;;;;;;4448048;32;20072;-65
2024/04/03 07:38:10;;;;;;;0.35;0.35;;;10.30;99.90;;;;;;4446085;32;20068;-66
2024/04/03 07:40:36;;;;;;;0.35;0.35;;;10.30;99.90;;;;;;4455404;32;20089;-66
2024/04/03 07:43:02;;;;;;;0.30;0.30;;;10.30;99.90;;;;;;4446500;32;20135;-65
2024/04/03 07:45:28;;;;;;;2.75;0.40;;;10.30;99.90;;;;;;4445187;32;20076;-64
2024/04/03 07:47:53;;;;;;;0.30;0.30;;;10.20;99.90;;;;;;4454710;32;20137;-67
2024/04/03 07:50:20;;;;;;;0.60;0.60;;;10.20;99.90;;;;;;4453848;32;20100;-66
2024/04/03 07:52:46;;;;;;;0.40;0.40;;;10.30;99.90;;;;;;4453658;32;20092;-66
2024/04/03 07:55:13;;;;;;;0.50;0.50;;;10.30;99.90;;;;;;4446178;32;20119;-67
2024/04/03 07:57:39;;;;;;;0.28;0.28;;;10.40;99.90;;;;;;4455541;32;20535;-67
2024/04/03 08:02:37;;;;;;;0.30;0.30;;;10.50;99.90;;;;;;4453720;32;20084;-67
2024/04/03 08:05:04;;;;;;;0.30;0.30;;;10.70;99.90;;;;;;4445894;32;20082;-68
2024/04/03 08:07:29;;;;;;;0.30;0.30;;;10.80;99.90;;;;;;4455006;32;20077;-65
2024/04/03 08:09:55;;;;;;;0.30;0.30;;;10.90;99.90;;;;;;4455224;32;20101;-67
2024/04/03 08:12:20;;;;;;;0.35;0.35;;;11.10;99.90;;;;;;4456028;32;20119;-66
2024/04/03 08:14:46;;;;;;;0.30;0.30;;;11.20;99.90;;;;;;4453879;32;20068;-71
2024/04/03 08:17:11;;;;;;;0.32;0.32;;;11.30;99.90;;;;;;4453343;32;20134;-67
2024/04/03 08:19:37;;;;;;;0.20;0.20;;;11.30;99.90;;;;;;4454424;32;20123;-67
2024/04/03 08:22:02;;;;;;;0.30;0.30;;;11.30;99.90;;;;;;4454028;32;20447;-67
2024/04/03 08:24:29;;;;;;;0.30;0.30;;;11.10;99.90;;;;;;4444114;32;20130;-68
2024/04/03 08:26:55;;;;;;;0.45;0.45;;;11.10;99.90;;;;;;4454563;32;20093;-66
2024/04/03 08:29:22;;;;;;;0.30;0.30;;;11.20;99.90;;;;;;4455391;32;20076;-64
2024/04/03 08:31:49;;;;;;;0.35;0.35;;;11.30;99.90;;;;;;4453928;32;20077;-64
2024/04/03 08:34:14;;;;;;;0.30;0.30;;;11.40;99.90;;;;;;4454157;32;20085;-66
2024/04/03 08:36:40;;;;;;;1.37;0.95;;;11.20;99.90;;;;;;4453461;32;20076;-67
2024/04/03 08:39:06;;;;;;;0.30;0.30;;;11.20;99.90;;;;;;4453212;32;20061;-65
2024/04/03 08:41:34;;;;;;;0.20;0.20;;;11.20;99.90;;;;;;4454162;32;20072;-65
2024/04/03 08:43:59;;;;;;;0.50;0.50;;;11.20;99.90;;;;;;4455621;32;20170;-65
2024/04/03 08:46:29;;;;;;;0.75;0.65;;;11.10;99.90;;;;;;4453291;32;20084;-64
2024/04/03 08:48:56;;;;;;;0.30;0.30;;;11.00;99.90;;;;;;4448290;32;20075;-65
2024/04/03 08:51:26;;;;;;;0.40;0.40;;;11.20;99.90;;;;;;4442593;32;20080;-65
2024/04/03 08:54:02;;;;;;;1.65;0.75;;;11.30;99.90;;;;;;4439243;32;20765;-65
2024/04/03 08:56:28;;;;;;;0.30;0.30;;;11.50;99.90;;;;;;4444239;32;20085;-65
2024/04/03 08:58:54;;;;;;;0.40;0.40;;;11.60;99.90;;;;;;4455277;32;20163;-66
2024/04/03 09:01:19;;;;;;;0.50;0.50;;;11.80;99.90;;;;;;4453729;32;20137;-66
2024/04/03 09:03:45;;;;;;;0.50;0.50;;;11.90;99.90;;;;;;4454496;32;20485;-65
2024/04/03 09:06:11;;;;;;;1.17;0.85;;;12.00;99.90;;;;;;4452729;32;20081;-66
2024/04/03 09:08:44;;;;;;;0.88;0.82;;;12.00;99.90;;;;;;4453478;32;20515;-66
2024/04/03 09:11:11;;;;;;;0.30;0.30;;;12.00;99.90;;;;;;4453493;32;20088;-66
2024/04/03 09:13:37;;;;;;;0.80;0.62;;;11.90;99.90;;;;;;4454496;32;20065;-66
2024/04/03 09:16:03;;;;;;;1.95;0.90;;;11.80;99.90;;;;;;4454862;32;20081;-66
2024/04/03 09:18:29;;;;;;;0.40;0.40;;;11.70;99.90;;;;;;4453041;32;20072;-67
2024/04/03 09:20:55;;;;;;;0.40;0.40;;;11.80;99.90;;;;;;4452105;32;20073;-66
2024/04/03 09:23:21;;;;;;;0.40;0.40;;;11.90;99.90;;;;;;4453395;32;20549;-66
2024/04/03 09:25:46;;;;;;;0.55;0.55;;;12.00;99.90;;;;;;4453039;32;20089;-68
2024/04/03 09:28:13;;;;;;;0.60;0.60;;;12.00;99.90;;;;;;4454869;32;20077;-66
2024/04/03 09:30:40;;;;;;;2.67;1.00;;;12.00;99.90;;;;;;4456157;32;20068;-65
2024/04/03 09:33:07;;;;;;;0.37;0.37;;;12.00;99.90;;;;;;4449039;32;20509;-67
2024/04/03 09:35:35;;;;;;;0.30;0.30;;;12.10;99.90;;;;;;4447717;32;20135;-66
2024/04/03 09:38:02;;;;;;;1.27;0.50;;;12.30;99.90;;;;;;4456089;32;20119;-65
2024/04/03 09:40:29;;;;;;;0.40;0.40;;;12.30;99.90;;;;;;4455559;32;20713;-65
2024/04/03 09:43:02;;;;;;;0.37;0.37;;;12.50;99.90;;;;;;4441579;32;20572;-65
2024/04/03 09:45:28;;;;;;;1.20;1.10;;;12.50;99.90;;;;;;4447882;32;20080;-66
2024/04/03 09:47:58;;;;;;;0.80;0.80;;;12.60;99.90;;;;;;4447123;32;20523;-61
2024/04/03 09:50:44;;;;;;;0.47;0.47;;;12.60;99.90;;;;;;4449665;32;20076;-61
2024/04/03 09:53:27;;;;;;;1.65;0.60;;;12.70;99.90;;;;;;4445487;32;20057;-61
2024/04/03 09:55:53;;;;;;;0.40;0.40;;;13.00;99.90;;;;;;4455645;32;20092;-61
2024/04/03 09:58:21;;;;;;;0.40;0.40;;;12.90;99.90;;;;;;4456197;32;20537;-67
2024/04/03 10:00:51;;;;;;;0.50;0.50;;;13.10;99.90;;;;;;4455014;32;20536;-66
2024/04/03 10:03:23;;;;;;;0.75;0.75;;;13.10;99.90;;;;;;4446588;32;20072;-65
2024/04/03 10:05:58;;;;;;;0.50;0.50;;;13.20;99.90;;;;;;4455597;32;20441;-67
2024/04/03 10:08:32;;;;;;;4.25;1.77;;;13.00;99.90;;;;;;4441275;32;20159;-65
2024/04/03 10:10:58;;;;;;;0.50;0.50;;;13.10;99.90;;;;;;4454566;32;20080;-66
2024/04/03 10:13:29;;;;;;;0.40;0.40;;;13.10;99.90;;;;;;4442150;32;20469;-67
2024/04/03 10:16:12;;;;;;;;;;;13.10;99.90;;;;;;4454610;32;20065;-67
2024/04/03 10:18:39;;;;;;;0.93;0.68;;;13.10;99.90;;;;;;4454942;32;19956;-67
2024/04/03 10:21:07;;;;;;;0.73;0.70;;;13.00;99.90;;;;;;4447045;32;20076;-66
2024/04/03 10:23:43;;;;;;;0.40;0.40;;;13.00;99.90;;;;;;4447818;32;20081;-66
2024/04/03 10:26:11;;;;;;;0.77;0.77;;;13.00;99.90;;;;;;4454564;32;20060;-67
2024/04/03 10:28:37;;;;;;;0.50;0.50;;;13.00;99.90;;;;;;4456772;32;20081;-67
2024/04/03 10:31:03;;;;;;;0.60;0.60;;;13.00;99.90;;;;;;4454126;32;20135;-66
2024/04/03 10:33:29;;;;;;;0.40;0.40;;;13.10;99.90;;;;;;4457165;32;20085;-67
2024/04/03 10:35:55;;;;;;;0.55;0.55;;;13.00;99.90;;;;;;4455350;32;20092;-66
2024/04/03 10:38:21;;;;;;;0.55;0.55;;;12.90;99.90;;;;;;4445358;32;20513;-66
2024/04/03 10:40:47;;;;;;;13.07;2.62;;;12.80;99.90;;;;;;4453688;32;20092;-67
2024/04/03 10:43:13;;;;;;;0.40;0.40;;;12.90;99.90;;;;;;4456576;32;20118;-66
2024/04/03 10:45:39;;;;;;;2.25;0.80;;;12.90;99.90;;;;;;4452994;32;20556;-66
2024/04/03 10:48:09;;;;;;;22.02;0.95;;;12.80;99.90;;;;;;4446329;32;20060;-66
2024/04/03 10:50:37;;;;;;;0.40;0.40;;;12.80;99.90;;;;;;4455524;32;20097;-68
2024/04/03 10:53:03;;;;;;;0.60;0.52;;;12.70;99.90;;;;;;4455443;32;20140;-67
2024/04/03 10:55:31;;;;;;;0.40;0.40;;;12.70;99.90;;;;;;4447513;32;20064;-68
2024/04/03 10:58:01;;;;;;;1.85;0.98;;;12.60;99.90;;;;;;4449204;32;20092;-66
2024/04/03 11:00:33;;;;;;;0.37;0.37;;;12.40;99.90;;;;;;4447429;32;20122;-67
2024/04/03 11:03:03;;;;;;;0.50;0.50;;;12.40;99.90;;;;;;4456761;32;20088;-68
2024/04/03 11:05:29;;;;;;;0.37;0.37;;;12.30;99.90;;;;;;4449106;32;20093;-67
2024/04/03 11:07:56;;;;;;;0.37;0.37;;;12.30;99.90;;;;;;4447325;32;20081;-64
2024/04/03 11:10:22;;;;;;;20.08;0.88;;;12.30;99.90;;;;;;4452169;32;20064;-64
2024/04/03 11:12:48;;;;;;;0.52;0.52;;;12.30;99.90;;;;;;4451060;32;20452;-64
2024/04/03 11:15:22;;;;;;;0.52;0.52;;;12.30;99.90;;;;;;4449515;32;20176;-64
2024/04/03 11:17:48;;;;;;;0.52;0.52;;;12.30;99.90;;;;;;4457133;32;20057;-64
2024/04/03 11:20:13;;;;;;;0.40;0.40;;;12.20;99.90;;;;;;4454201;32;20592;-65
2024/04/03 11:22:39;;;;;;;0.70;0.70;;;12.30;99.90;;;;;;4455457;32;20057;-65
2024/04/03 11:25:08;;;;;;;0.40;0.40;;;12.30;99.90;;;;;;4453920;32;20585;-66
2024/04/03 11:27:33;;;;;;;0.55;0.55;;;12.30;99.90;;;;;;4454013;32;20115;-64
2024/04/03 11:29:59;;;;;;;1.27;0.50;;;12.30;99.90;;;;;;4450153;32;20515;-65
2024/04/03 11:32:25;;;;;;;0.40;0.40;;;12.40;99.90;;;;;;4455376;32;20650;-64
2024/04/03 11:34:51;;;;;;;0.68;0.68;;;12.40;99.90;;;;;;4454484;32;20434;-63
2024/04/03 11:37:16;;;;;;;0.30;0.30;;;12.40;99.90;;;;;;4456867;32;20115;-66
2024/04/03 11:39:42;;;;;;;0.68;0.68;;;12.40;99.90;;;;;;4452820;32;20064;-65
2024/04/03 11:42:07;;;;;;;0.28;0.28;;;12.40;99.90;;;;;;4453700;32;20068;-66
2024/04/03 11:44:33;;;;;;;0.30;0.30;;;12.40;99.90;;;;;;4455298;32;20064;-65
2024/04/03 11:46:59;;;;;;;0.55;0.55;;;12.30;99.90;;;;;;4446994;32;20465;-65
2024/04/03 11:49:24;;;;;;;0.50;0.50;;;12.30;99.90;;;;;;4454385;32;20433;-65
2024/04/03 11:51:50;;;;;;;8.90;0.80;;;12.40;99.90;;;;;;4451373;32;20397;-65
2024/04/03 11:54:17;;;;;;;3.58;0.70;;;12.50;99.90;;;;;;4443175;32;93107;-65
2024/04/03 11:56:42;;;;;;;0.95;0.95;;;12.40;99.90;;;;;;4452572;32;20072;-64
2024/04/03 11:59:08;;;;;;;0.40;0.40;;;12.30;99.90;;;;;;4454261;32;20438;-64
2024/04/03 12:01:34;;;;;;;0.37;0.37;;;12.20;99.90;;;;;;4455435;32;20682;-64
2024/04/03 12:04:00;;;;;;;1.80;0.82;;;12.20;99.90;;;;;;4456038;32;20068;-65
2024/04/03 12:06:25;;;;;;;0.50;0.50;;;12.10;99.90;;;;;;4455926;32;20128;-64
2024/04/03 12:08:51;;;;;;;0.40;0.40;;;12.10;99.90;;;;;;4455539;32;20508;-64
2024/04/03 12:11:17;;;;;;;0.80;0.80;;;12.20;99.90;;;;;;4446516;32;20564;-65
2024/04/03 12:13:43;;;;;;;0.50;0.50;;;12.10;99.90;;;;;;4445718;32;20069;-65
2024/04/03 12:16:10;;;;;;;3.40;0.62;;;12.20;99.90;;;;;;4439867;32;20076;-64
2024/04/03 12:18:37;;;;;;;0.68;0.68;;;12.20;99.90;;;;;;4445192;32;20778;-64
2024/04/03 12:21:05;;;;;;;0.40;0.40;;;12.10;99.90;;;;;;4454501;32;20060;-62
2024/04/03 12:23:30;;;;;;;0.85;0.82;;;12.20;99.90;;;;;;4455918;32;20061;-62
2024/04/03 12:25:56;;;;;;;0.50;0.50;;;12.20;99.90;;;;;;4447254;32;20578;-62
2024/04/03 12:28:21;;;;;;;0.40;0.40;;;12.20;99.90;;;;;;4455227;32;20147;-65
2024/04/03 12:30:47;;;;;;;0.35;0.35;;;12.20;99.90;;;;;;4453057;32;20598;-67
2024/04/03 12:33:12;;;;;;;0.50;0.50;;;12.30;99.90;;;;;;4454431;32;20057;-66
2024/04/03 12:35:38;;;;;;;0.40;0.40;;;12.30;99.90;;;;;;4454558;32;20592;-67
2024/04/03 12:38:03;;;;;;;0.68;0.68;;;12.30;99.90;;;;;;4455605;32;20279;-67
2024/04/03 12:40:29;;;;;;;0.30;0.30;;;12.30;99.90;;;;;;4454008;32;20085;-67
2024/04/03 12:42:54;;;;;;;0.90;0.68;;;12.20;99.90;;;;;;4453837;32;20126;-66
2024/04/03 12:45:20;;;;;;;0.50;0.50;;;12.10;99.90;;;;;;4452612;32;20139;-67
2024/04/03 12:47:45;;;;;;;0.70;0.70;;;12.20;99.90;;;;;;4452484;32;20173;-66
2024/04/03 12:50:11;;;;;;;0.50;0.50;;;12.10;99.90;;;;;;4453464;32;20131;-67
2024/04/03 12:52:36;;;;;;;0.47;0.47;;;12.10;99.90;;;;;;4452760;32;20060;-66